Citadel — PBOK — position and weather

sailwx.info

Track history (hours):
 
Tides and Currents Weather Stations Pressure Air Temp Water Temp Dewpoint Dewpoint Depression Visibility Wind Speed Wind Dir Waves Ship Positions

Citadel

Last reported at 2014-Jul-23 21:34 UTC. Time now 2014-Jul-23 21:45 UTC.
Position N 51°03' E 002°21'.

Length 111 m; draft 4 m.

Type: Cargo ship. MMSI: 245977000.

Date/timePositionNaut miles runAvg speedWind from/ knotsBaromVisibWave heightAir tempDewpointWater temp
2014-Jul-23 21:34N 51°03' E 002°21'0 0.0
2014-Jul-23 20:33N 51°03' E 002°21'0 0.0
2014-Jul-23 19:27N 51°03' E 002°21'0 0.0
2014-Jul-23 18:32N 51°03' E 002°21'0 0.0
2014-Jul-23 17:32N 51°03' E 002°21'0 0.0
2014-Jul-23 16:25N 51°03' E 002°21'0 0.0
2014-Jul-23 15:31N 51°03' E 002°21'0 0.0
2014-Jul-23 14:33N 51°03' E 002°21'0 0.0
2014-Jul-23 13:33N 51°03' E 002°21'0 0.0
2014-Jul-23 11:14N 51°03' E 002°21'0 0.0
2014-Jul-23 10:20N 51°03' E 002°21'0 0.0
2014-Jul-23 09:07N 51°03' E 002°21'0 0.0
2014-Jul-23 08:22N 51°03' E 002°21'0 0.0
2014-Jul-23 07:34N 51°03' E 002°21'0 0.0
2014-Jul-23 06:12N 51°03' E 002°21'0 0.0
2014-Jul-23 05:33N 51°03' E 002°21'0 0.0
2014-Jul-23 04:08N 51°03' E 002°21'0 0.0
2014-Jul-23 03:14N 51°03' E 002°21'0 0.0
2014-Jul-23 02:31N 51°03' E 002°21'0 0.0
2014-Jul-23 01:25N 51°03' E 002°21'0 0.0
2014-Jul-23 00:33N 51°03' E 002°21'0 0.0
2014-Jul-22 23:33N 51°03' E 002°21'0 0.0
2014-Jul-22 22:30N 51°03' E 002°21'0 0.0
2014-Jul-22 21:29N 51°03' E 002°21'0 0.0
2014-Jul-22 20:32N 51°03' E 002°21'0 0.0
2014-Jul-22 19:31N 51°03' E 002°21'0 0.0
2014-Jul-22 18:31N 51°03' E 002°21'0 0.0
2014-Jul-22 17:33N 51°03' E 002°21'0 0.0
2014-Jul-22 16:33N 51°03' E 002°21'0 0.0
2014-Jul-22 15:33N 51°03' E 002°21'0 0.0
2014-Jul-22 14:32N 51°03' E 002°21'0 0.0
2014-Jul-22 13:29N 51°03' E 002°21'0 0.0
2014-Jul-22 12:31N 51°03' E 002°21'0 0.5
2014-Jul-22 11:33N 51°03' E 002°21'2210.9
2014-Jul-22 09:32N 51°01' E 001°46'12 9.3
2014-Jul-22 08:13N 50°54' E 001°30'28 9.9
2014-Jul-22 05:23N 50°31' E 001°05'1213.2
2014-Jul-22 04:30N 50°26' E 000°49'1313.7
2014-Jul-22 03:33N 50°22' E 000°29'4410.9
2014-Jul-21 23:31N 49°43' W 000°04'1212.3
2014-Jul-21 22:33N 49°32' W 000°07'1211.6
2014-Jul-21 21:33N 49°26' E 000°09'1514.1
2014-Jul-21 20:30N 49°29' E 000°31'511.5
2014-Jul-21 20:05N 49°26' E 000°36'2 0.1
2014-Jul-20 01:30N 49°27' E 000°33'1010.9
2014-Jul-20 00:34N 49°26' E 000°18'1212.2
2014-Jul-19 23:33N 49°28' W 000°01'8 7.9
2014-Jul-19 22:33N 49°33' W 000°10'5711.3
2014-Jul-19 17:33N 50°28' E 000°05'1212.2
2014-Jul-19 16:33N 50°32' E 000°24'1111.2
2014-Jul-19 15:34N 50°36' E 000°40'1111.1
2014-Jul-19 14:33N 50°42' E 000°54'1812.1
2014-Jul-19 13:05N 50°53' E 001°17'714.1
2014-Jul-19 12:34N 50°59' E 001°24'1312.6
2014-Jul-19 11:33N 51°05' E 001°41'1313.0
2014-Jul-19 10:33N 51°03' E 002°01'1212.4
2014-Jul-19 09:32N 51°03' E 002°21'1 0.6
2014-Jul-19 08:31N 51°03' E 002°21'0 0.0
2014-Jul-19 07:33N 51°03' E 002°21'0 0.0
2014-Jul-19 06:09N 51°03' E 002°21'0 0.0
2014-Jul-19 05:29N 51°03' E 002°21'0 0.0
2014-Jul-19 04:26N 51°03' E 002°21'0 0.0
2014-Jul-19 03:25N 51°03' E 002°21'0 0.0
2014-Jul-19 02:31N 51°03' E 002°21'0 0.0
2014-Jul-19 01:33N 51°03' E 002°21'0 0.0
2014-Jul-19 00:30N 51°03' E 002°21'0 0.0
2014-Jul-18 23:24N 51°03' E 002°21'0 0.0
2014-Jul-18 22:29N 51°03' E 002°21'0 0.0
2014-Jul-18 21:26N 51°03' E 002°21'0 0.0
2014-Jul-18 20:31N 51°03' E 002°21'0 0.0
2014-Jul-18 19:31N 51°03' E 002°21'0 0.0
2014-Jul-18 18:33N 51°03' E 002°21'0 0.0
2014-Jul-18 17:33N 51°03' E 002°21'0 0.0
2014-Jul-18 16:11N 51°03' E 002°21'0 0.0
2014-Jul-18 15:32N 51°03' E 002°21'0 0.0
2014-Jul-18 14:32N 51°03' E 002°21'0 0.0
2014-Jul-18 13:31N 51°03' E 002°21'0 0.0
2014-Jul-18 12:31N 51°03' E 002°21'0 0.0
2014-Jul-18 11:33N 51°03' E 002°21'0 0.0
2014-Jul-18 10:30N 51°03' E 002°21'0 0.0
2014-Jul-18 09:30N 51°03' E 002°21'0 0.0
2014-Jul-18 08:32N 51°03' E 002°21'0 0.0
2014-Jul-18 07:32N 51°03' E 002°21'0 0.0
2014-Jul-18 06:31N 51°03' E 002°21'0 0.0
2014-Jul-18 05:31N 51°03' E 002°21'0 0.0
2014-Jul-18 04:24N 51°03' E 002°21'0 0.0
2014-Jul-18 03:33N 51°03' E 002°21'0 0.0
2014-Jul-18 02:26N 51°03' E 002°21'0 0.0
2014-Jul-18 01:32N 51°03' E 002°21'0 0.0
2014-Jul-18 00:32N 51°03' E 002°21'0 0.0
2014-Jul-17 23:31N 51°03' E 002°21'0 0.0
2014-Jul-17 22:31N 51°03' E 002°21'0 0.0
2014-Jul-17 21:33N 51°03' E 002°21'0 0.0
2014-Jul-17 20:33N 51°03' E 002°21'0 0.0
2014-Jul-17 19:32N 51°03' E 002°21'0 0.2
2014-Jul-17 18:33N 51°03' E 002°21'4 3.6
2014-Jul-17 17:34N 51°04' E 002°16'1515.0
2014-Jul-17 16:33N 51°02' E 001°52'9 8.9
2014-Jul-17 15:33N 50°60' E 001°39'10 9.8
2014-Jul-17 14:33N 50°52' E 001°28'1313.3
2014-Jul-17 13:33N 50°40' E 001°18'1714.0
2014-Jul-17 12:21N 50°30' E 000°57'1214.8
2014-Jul-17 11:31N 50°27' E 000°38'1914.6
2014-Jul-17 10:12N 50°21' E 000°10'2713.2
2014-Jul-17 08:11N 50°14' W 000°30'1911.5
2014-Jul-17 06:30N 50°09' W 000°59'1010.4
2014-Jul-17 05:33N 50°06' W 001°14'3410.9
2014-Jul-17 02:25N 49°56' W 002°05'16511.8
2014-Jul-16 12:29N 48°07' W 005°13'1112.3
2014-Jul-16 11:33N 47°59' W 005°01'1312.9
2014-Jul-16 10:33N 47°52' W 004°45'5413.0
2014-Jul-16 06:25N 47°24' W 003°37'1213.4
2014-Jul-16 05:33N 47°18' W 003°22'1313.2
2014-Jul-16 04:32N 47°14' W 003°03'1313.6
2014-Jul-16 03:33N 47°10' W 002°44'  
Track history (hours):
 
Tides and Currents Weather Stations Pressure Air Temp Water Temp Dewpoint Dewpoint Depression Visibility Wind Speed Wind Dir Waves Ship Positions

Citadel

Last reported at 2014-Jul-23 21:34 UTC. Time now 2014-Jul-23 21:45 UTC.
Position N 51°03' E 002°21'.

Length 111 m; draft 4 m.

Type: Cargo ship. MMSI: 245977000.

Date/timePositionNaut miles runAvg speedWind from/ knotsBaromVisibWave heightAir tempDewpointWater temp
2014-Jul-23 21:34N 51°03' E 002°21'0 0.0
2014-Jul-23 20:33N 51°03' E 002°21'0 0.0
2014-Jul-23 19:27N 51°03' E 002°21'0 0.0
2014-Jul-23 18:32N 51°03' E 002°21'0 0.0
2014-Jul-23 17:32N 51°03' E 002°21'0 0.0
2014-Jul-23 16:25N 51°03' E 002°21'0 0.0
2014-Jul-23 15:31N 51°03' E 002°21'0 0.0
2014-Jul-23 14:33N 51°03' E 002°21'0 0.0
2014-Jul-23 13:33N 51°03' E 002°21'0 0.0
2014-Jul-23 11:14N 51°03' E 002°21'0 0.0
2014-Jul-23 10:20N 51°03' E 002°21'0 0.0
2014-Jul-23 09:07N 51°03' E 002°21'0 0.0
2014-Jul-23 08:22N 51°03' E 002°21'0 0.0
2014-Jul-23 07:34N 51°03' E 002°21'0 0.0
2014-Jul-23 06:12N 51°03' E 002°21'0 0.0
2014-Jul-23 05:33N 51°03' E 002°21'0 0.0
2014-Jul-23 04:08N 51°03' E 002°21'0 0.0
2014-Jul-23 03:14N 51°03' E 002°21'0 0.0
2014-Jul-23 02:31N 51°03' E 002°21'0 0.0
2014-Jul-23 01:25N 51°03' E 002°21'0 0.0
2014-Jul-23 00:33N 51°03' E 002°21'0 0.0
2014-Jul-22 23:33N 51°03' E 002°21'0 0.0
2014-Jul-22 22:30N 51°03' E 002°21'0 0.0
2014-Jul-22 21:29N 51°03' E 002°21'0 0.0
2014-Jul-22 20:32N 51°03' E 002°21'0 0.0
2014-Jul-22 19:31N 51°03' E 002°21'0 0.0
2014-Jul-22 18:31N 51°03' E 002°21'0 0.0
2014-Jul-22 17:33N 51°03' E 002°21'0 0.0
2014-Jul-22 16:33N 51°03' E 002°21'0 0.0
2014-Jul-22 15:33N 51°03' E 002°21'0 0.0
2014-Jul-22 14:32N 51°03' E 002°21'0 0.0
2014-Jul-22 13:29N 51°03' E 002°21'0 0.0
2014-Jul-22 12:31N 51°03' E 002°21'0 0.5
2014-Jul-22 11:33N 51°03' E 002°21'2210.9
2014-Jul-22 09:32N 51°01' E 001°46'12 9.3
2014-Jul-22 08:13N 50°54' E 001°30'28 9.9
2014-Jul-22 05:23N 50°31' E 001°05'1213.2
2014-Jul-22 04:30N 50°26' E 000°49'1313.7
2014-Jul-22 03:33N 50°22' E 000°29'4410.9
2014-Jul-21 23:31N 49°43' W 000°04'1212.3
2014-Jul-21 22:33N 49°32' W 000°07'1211.6
2014-Jul-21 21:33N 49°26' E 000°09'1514.1
2014-Jul-21 20:30N 49°29' E 000°31'511.5
2014-Jul-21 20:05N 49°26' E 000°36'2 0.1
2014-Jul-20 01:30N 49°27' E 000°33'1010.9
2014-Jul-20 00:34N 49°26' E 000°18'1212.2
2014-Jul-19 23:33N 49°28' W 000°01'8 7.9
2014-Jul-19 22:33N 49°33' W 000°10'5711.3
2014-Jul-19 17:33N 50°28' E 000°05'1212.2
2014-Jul-19 16:33N 50°32' E 000°24'1111.2
2014-Jul-19 15:34N 50°36' E 000°40'1111.1
2014-Jul-19 14:33N 50°42' E 000°54'1812.1
2014-Jul-19 13:05N 50°53' E 001°17'714.1
2014-Jul-19 12:34N 50°59' E 001°24'1312.6
2014-Jul-19 11:33N 51°05' E 001°41'1313.0
2014-Jul-19 10:33N 51°03' E 002°01'1212.4
2014-Jul-19 09:32N 51°03' E 002°21'1 0.6
2014-Jul-19 08:31N 51°03' E 002°21'0 0.0
2014-Jul-19 07:33N 51°03' E 002°21'0 0.0
2014-Jul-19 06:09N 51°03' E 002°21'0 0.0
2014-Jul-19 05:29N 51°03' E 002°21'0 0.0
2014-Jul-19 04:26N 51°03' E 002°21'0 0.0
2014-Jul-19 03:25N 51°03' E 002°21'0 0.0
2014-Jul-19 02:31N 51°03' E 002°21'0 0.0
2014-Jul-19 01:33N 51°03' E 002°21'0 0.0
2014-Jul-19 00:30N 51°03' E 002°21'0 0.0
2014-Jul-18 23:24N 51°03' E 002°21'0 0.0
2014-Jul-18 22:29N 51°03' E 002°21'0 0.0
2014-Jul-18 21:26N 51°03' E 002°21'0 0.0
2014-Jul-18 20:31N 51°03' E 002°21'0 0.0
2014-Jul-18 19:31N 51°03' E 002°21'0 0.0
2014-Jul-18 18:33N 51°03' E 002°21'0 0.0
2014-Jul-18 17:33N 51°03' E 002°21'0 0.0
2014-Jul-18 16:11N 51°03' E 002°21'0 0.0
2014-Jul-18 15:32N 51°03' E 002°21'0 0.0
2014-Jul-18 14:32N 51°03' E 002°21'0 0.0
2014-Jul-18 13:31N 51°03' E 002°21'0 0.0
2014-Jul-18 12:31N 51°03' E 002°21'0 0.0
2014-Jul-18 11:33N 51°03' E 002°21'0 0.0
2014-Jul-18 10:30N 51°03' E 002°21'0 0.0
2014-Jul-18 09:30N 51°03' E 002°21'0 0.0
2014-Jul-18 08:32N 51°03' E 002°21'0 0.0
2014-Jul-18 07:32N 51°03' E 002°21'0 0.0
2014-Jul-18 06:31N 51°03' E 002°21'0 0.0
2014-Jul-18 05:31N 51°03' E 002°21'0 0.0
2014-Jul-18 04:24N 51°03' E 002°21'0 0.0
2014-Jul-18 03:33N 51°03' E 002°21'0 0.0
2014-Jul-18 02:26N 51°03' E 002°21'0 0.0
2014-Jul-18 01:32N 51°03' E 002°21'0 0.0
2014-Jul-18 00:32N 51°03' E 002°21'0 0.0
2014-Jul-17 23:31N 51°03' E 002°21'0 0.0
2014-Jul-17 22:31N 51°03' E 002°21'0 0.0
2014-Jul-17 21:33N 51°03' E 002°21'0 0.0
2014-Jul-17 20:33N 51°03' E 002°21'0 0.0
2014-Jul-17 19:32N 51°03' E 002°21'0 0.2
2014-Jul-17 18:33N 51°03' E 002°21'4 3.6
2014-Jul-17 17:34N 51°04' E 002°16'1515.0
2014-Jul-17 16:33N 51°02' E 001°52'9 8.9
2014-Jul-17 15:33N 50°60' E 001°39'10 9.8
2014-Jul-17 14:33N 50°52' E 001°28'1313.3
2014-Jul-17 13:33N 50°40' E 001°18'1714.0
2014-Jul-17 12:21N 50°30' E 000°57'1214.8
2014-Jul-17 11:31N 50°27' E 000°38'1914.6
2014-Jul-17 10:12N 50°21' E 000°10'2713.2
2014-Jul-17 08:11N 50°14' W 000°30'1911.5
2014-Jul-17 06:30N 50°09' W 000°59'1010.4
2014-Jul-17 05:33N 50°06' W 001°14'3410.9
2014-Jul-17 02:25N 49°56' W 002°05'16511.8
2014-Jul-16 12:29N 48°07' W 005°13'1112.3
2014-Jul-16 11:33N 47°59' W 005°01'1312.9
2014-Jul-16 10:33N 47°52' W 004°45'5413.0
2014-Jul-16 06:25N 47°24' W 003°37'1213.4
2014-Jul-16 05:33N 47°18' W 003°22'1313.2
2014-Jul-16 04:32N 47°14' W 003°03'1313.6
2014-Jul-16 03:33N 47°10' W 002°44'  

Dump ship's entire track history